Time;durP1;ratioP1;P1;durP2;ratioP2;P2;SDS_P1;SDS_P2;PMS_P1;PMS_P2;Temp;Humidity;BMP_temperature;BMP_pressure;BME280_temperature;BME280_humidity;BME280_pressure;Samples;Min_cycle;Max_cycle;Signal;HPM_P1;HPM_P2
2021/10/30 00:00:16;;;;;;;16.67;4.70;;;11.40;99.90;;;;;;4941994;29;20032;-73
2021/10/30 00:02:42;;;;;;;13.85;4.30;;;11.50;99.90;;;;;;4926045;29;20028;-74
2021/10/30 00:05:10;;;;;;;11.02;4.10;;;11.30;99.90;;;;;;4941786;29;20035;-75
2021/10/30 00:07:41;;;;;;;8.93;4.10;;;11.20;99.90;;;;;;4927138;29;20489;-76
2021/10/30 00:10:08;;;;;;;9.15;3.92;;;11.30;99.90;;;;;;4927361;29;20036;-76
2021/10/30 00:12:33;;;;;;;11.73;4.78;;;11.30;99.90;;;;;;4942053;29;20028;-75
2021/10/30 00:14:59;;;;;;;12.35;5.07;;;11.20;99.90;;;;;;4927375;29;20055;-74
2021/10/30 00:17:24;;;;;;;11.20;4.15;;;11.20;99.90;;;;;;4938873;29;20087;-76
2021/10/30 00:19:50;;;;;;;11.50;5.03;;;11.10;99.90;;;;;;4960944;29;20096;-75
2021/10/30 00:22:16;;;;;;;12.93;4.88;;;11.10;99.90;;;;;;4945504;29;20051;-75
2021/10/30 00:24:42;;;;;;;12.30;4.95;;;11.00;99.90;;;;;;4935880;29;20054;-75
2021/10/30 00:27:10;;;;;;;13.05;4.93;;;11.00;99.90;;;;;;4926804;29;20024;-75
2021/10/30 00:29:37;;;;;;;14.13;4.90;;;11.00;99.90;;;;;;4925164;29;20028;-76
2021/10/30 00:32:05;;;;;;;13.80;5.22;;;10.90;99.90;;;;;;4941621;29;20050;-74
2021/10/30 00:34:31;;;;;;;11.82;5.03;;;10.80;99.90;;;;;;4941458;29;20032;-74
2021/10/30 00:36:57;;;;;;;9.75;5.10;;;10.80;99.90;;;;;;4926784;29;20048;-74
2021/10/30 00:39:22;;;;;;;10.10;4.95;;;10.70;99.90;;;;;;4926594;29;20036;-75
2021/10/30 00:41:50;;;;;;;10.88;4.15;;;10.70;99.90;;;;;;4926624;29;20024;-73
2021/10/30 00:44:16;;;;;;;8.65;4.38;;;10.70;99.90;;;;;;4941342;29;20048;-73
2021/10/30 00:46:43;;;;;;;7.60;4.72;;;10.60;99.90;;;;;;4926061;29;20071;-74
2021/10/30 00:49:10;;;;;;;8.90;4.25;;;10.60;99.90;;;;;;4925443;29;20076;-74
2021/10/30 00:51:37;;;;;;;14.27;5.63;;;10.60;99.90;;;;;;4926277;29;20042;-74
2021/10/30 00:54:04;;;;;;;10.57;5.45;;;10.60;99.90;;;;;;4941091;29;20048;-76
2021/10/30 00:56:31;;;;;;;11.38;5.15;;;10.60;99.90;;;;;;4926578;29;20040;-74
2021/10/30 00:59:04;;;;;;;9.18;4.28;;;10.60;99.90;;;;;;4940720;29;20398;-74
2021/10/30 01:01:30;;;;;;;10.35;4.82;;;10.60;99.90;;;;;;4926732;29;20063;-76
2021/10/30 01:03:58;;;;;;;10.07;4.43;;;10.60;99.90;;;;;;4941335;29;20039;-75
2021/10/30 01:06:24;;;;;;;13.90;5.05;;;10.60;99.90;;;;;;4927299;29;20056;-75
2021/10/30 01:08:50;;;;;;;12.65;4.03;;;10.70;99.90;;;;;;4926502;29;20101;-75
2021/10/30 01:11:17;;;;;;;7.45;3.92;;;10.70;99.90;;;;;;4926773;29;20036;-74
2021/10/30 01:13:43;;;;;;;10.00;4.85;;;10.70;99.90;;;;;;4925440;29;20518;-76
2021/10/30 01:16:10;;;;;;;11.88;4.82;;;10.70;99.90;;;;;;4926417;29;20035;-73
2021/10/30 01:18:36;;;;;;;10.88;4.38;;;10.70;99.90;;;;;;4925875;29;20036;-75
2021/10/30 01:21:02;;;;;;;7.18;3.80;;;10.70;99.90;;;;;;4940588;29;20038;-76
2021/10/30 01:23:28;;;;;;;9.25;4.05;;;10.70;99.90;;;;;;4926263;29;20063;-75
2021/10/30 01:26:03;;;;;;;11.13;4.78;;;10.70;99.90;;;;;;4926004;29;20032;-76
2021/10/30 01:28:39;;;;;;;7.85;4.72;;;10.80;99.90;;;;;;4926353;29;20036;-74
2021/10/30 01:31:05;;;;;;;11.55;5.32;;;10.70;99.90;;;;;;4926424;29;20028;-73
2021/10/30 01:33:30;;;;;;;7.13;4.03;;;10.70;99.90;;;;;;4925951;29;20121;-75
2021/10/30 01:35:56;;;;;;;9.20;4.90;;;10.70;99.90;;;;;;4940805;29;20047;-75
2021/10/30 01:38:22;;;;;;;8.68;4.57;;;10.70;99.90;;;;;;4925725;29;20512;-74
2021/10/30 01:40:49;;;;;;;7.85;4.30;;;10.60;99.90;;;;;;4940776;29;20040;-74
2021/10/30 01:43:18;;;;;;;11.45;5.43;;;10.70;99.90;;;;;;4926053;29;20032;-74
2021/10/30 01:45:45;;;;;;;23.25;6.00;;;10.70;99.90;;;;;;4925796;29;20038;-73
2021/10/30 01:48:11;;;;;;;10.23;4.57;;;10.60;99.90;;;;;;4940465;29;20361;-74
2021/10/30 01:50:40;;;;;;;10.23;4.70;;;10.60;99.90;;;;;;4926171;29;20025;-75
2021/10/30 01:53:05;;;;;;;11.25;4.60;;;10.50;99.90;;;;;;4925510;29;20036;-75
2021/10/30 01:55:34;;;;;;;11.38;5.68;;;10.40;99.90;;;;;;4925760;29;20040;-75
2021/10/30 01:58:00;;;;;;;12.68;4.75;;;10.40;99.90;;;;;;4926002;29;20099;-75
2021/10/30 02:00:25;;;;;;;9.15;4.80;;;10.30;99.90;;;;;;4940368;29;20024;-74
2021/10/30 02:02:51;;;;;;;9.55;4.00;;;10.30;99.90;;;;;;4925988;29;20070;-73
2021/10/30 02:05:25;;;;;;;10.25;4.85;;;10.30;99.90;;;;;;4925848;29;20074;-75
2021/10/30 02:07:51;;;;;;;12.55;4.63;;;10.20;99.90;;;;;;4925874;29;20035;-74
2021/10/30 02:10:17;;;;;;;7.88;4.38;;;10.20;99.90;;;;;;4926005;29;20036;-75
2021/10/30 02:12:43;;;;;;;13.77;5.05;;;10.20;99.90;;;;;;4940300;29;20036;-76
2021/10/30 02:15:10;;;;;;;9.15;4.45;;;10.20;99.90;;;;;;4925680;29;20020;-76
2021/10/30 02:17:36;;;;;;;12.10;4.53;;;10.20;99.90;;;;;;4940303;29;20059;-75
2021/10/30 02:20:04;;;;;;;10.43;4.85;;;10.20;99.90;;;;;;4925832;29;20046;-75
2021/10/30 02:22:30;;;;;;;10.13;4.32;;;10.20;99.90;;;;;;4925425;29;20104;-74
2021/10/30 02:24:56;;;;;;;8.70;4.00;;;10.20;99.90;;;;;;4925968;29;20028;-74
2021/10/30 02:27:22;;;;;;;13.80;5.68;;;10.20;99.90;;;;;;4927629;29;20041;-74
2021/10/30 02:29:47;;;;;;;9.82;4.88;;;10.20;99.90;;;;;;4943416;29;20122;-73
2021/10/30 02:32:13;;;;;;;12.52;4.90;;;10.30;99.90;;;;;;4943287;29;20028;-74
2021/10/30 02:34:40;;;;;;;9.18;4.38;;;10.30;99.90;;;;;;4929113;29;20025;-75
2021/10/30 02:37:07;;;;;;;11.52;5.30;;;10.30;99.90;;;;;;4943338;29;20055;-75
2021/10/30 02:39:33;;;;;;;9.75;4.30;;;10.40;99.90;;;;;;4928549;29;20054;-75
2021/10/30 02:41:59;;;;;;;10.95;5.13;;;10.40;99.90;;;;;;4928057;29;20036;-74
2021/10/30 02:44:24;;;;;;;17.73;4.65;;;10.40;99.90;;;;;;4928839;29;20528;-74
2021/10/30 02:46:50;;;;;;;7.13;4.00;;;10.60;99.90;;;;;;4928576;29;20040;-74
2021/10/30 02:49:17;;;;;;;8.57;4.20;;;10.50;99.90;;;;;;4943300;29;20039;-74
2021/10/30 02:51:43;;;;;;;9.07;4.95;;;10.50;99.90;;;;;;4927396;29;20063;-75
2021/10/30 02:54:10;;;;;;;8.00;4.13;;;10.60;99.90;;;;;;4942925;29;20505;-75
2021/10/30 02:56:35;;;;;;;8.18;4.13;;;10.60;99.90;;;;;;4943296;29;20080;-75
2021/10/30 02:59:03;;;;;;;8.13;3.95;;;10.60;99.90;;;;;;4928432;29;20781;-74
2021/10/30 03:01:29;;;;;;;8.25;4.15;;;10.60;99.90;;;;;;4927985;29;20036;-75
2021/10/30 03:03:54;;;;;;;13.52;5.25;;;10.60;99.90;;;;;;4928204;29;20043;-74
2021/10/30 03:06:25;;;;;;;13.02;5.55;;;10.50;99.90;;;;;;4928507;29;20035;-74
2021/10/30 03:08:52;;;;;;;12.32;4.82;;;10.50;99.90;;;;;;4928155;29;20332;-74
2021/10/30 03:11:17;;;;;;;11.02;4.68;;;10.40;99.90;;;;;;4928546;29;20607;-74
2021/10/30 03:13:46;;;;;;;9.60;4.32;;;10.40;99.90;;;;;;4928547;29;20036;-75
2021/10/30 03:16:12;;;;;;;8.02;4.55;;;10.30;99.90;;;;;;4929183;29;20111;-74
2021/10/30 03:18:37;;;;;;;9.02;4.57;;;10.30;99.90;;;;;;4942948;29;20080;-74
2021/10/30 03:21:04;;;;;;;12.63;5.20;;;10.20;99.90;;;;;;4942436;29;20125;-76
2021/10/30 03:23:30;;;;;;;10.55;4.95;;;10.20;99.90;;;;;;4928072;29;20127;-75
2021/10/30 03:25:56;;;;;;;10.90;4.43;;;10.10;99.90;;;;;;4927873;29;20028;-75
2021/10/30 03:28:21;;;;;;;9.00;4.30;;;10.10;99.90;;;;;;4942617;29;20032;-75
2021/10/30 03:30:47;;;;;;;12.10;4.72;;;10.00;99.90;;;;;;4942527;29;20119;-75
2021/10/30 03:33:13;;;;;;;8.60;4.25;;;10.00;99.90;;;;;;4927811;29;20032;-75
2021/10/30 03:35:39;;;;;;;12.05;5.03;;;10.00;99.90;;;;;;4927941;29;20059;-75
2021/10/30 03:38:05;;;;;;;10.25;5.32;;;10.00;99.90;;;;;;4927020;29;20044;-75
2021/10/30 03:40:30;;;;;;;7.47;3.83;;;10.00;99.90;;;;;;4927622;29;20526;-75
2021/10/30 03:42:56;;;;;;;8.75;3.75;;;10.10;99.90;;;;;;4927351;29;20092;-74
2021/10/30 03:45:28;;;;;;;8.73;4.22;;;10.10;99.90;;;;;;4941197;29;20087;-75
2021/10/30 03:47:54;;;;;;;10.15;4.47;;;10.10;99.90;;;;;;4927387;29;20793;-75
2021/10/30 03:50:19;;;;;;;10.60;4.32;;;10.10;99.90;;;;;;4927293;29;20039;-75
2021/10/30 03:52:45;;;;;;;10.45;4.32;;;10.10;99.90;;;;;;4941520;29;20034;-74
2021/10/30 03:55:11;;;;;;;8.63;4.30;;;10.10;99.90;;;;;;4941654;29;20040;-76
2021/10/30 03:57:37;;;;;;;9.60;4.10;;;10.10;99.90;;;;;;4927222;29;20104;-75
2021/10/30 04:00:07;;;;;;;7.43;3.65;;;10.10;99.90;;;;;;4927173;29;20734;-76
2021/10/30 04:02:33;;;;;;;8.90;4.22;;;10.00;99.90;;;;;;4927168;29;20032;-77
2021/10/30 04:04:58;;;;;;;8.27;3.55;;;10.00;99.90;;;;;;4926630;29;20039;-75
2021/10/30 04:07:24;;;;;;;7.63;3.70;;;10.00;99.90;;;;;;4933285;29;20040;-74
2021/10/30 04:09:50;;;;;;;7.93;4.10;;;9.90;99.90;;;;;;4945741;29;20039;-74
2021/10/30 04:12:16;;;;;;;12.93;4.30;;;9.90;99.90;;;;;;4960849;29;20038;-73
2021/10/30 04:14:41;;;;;;;10.25;4.57;;;10.00;99.90;;;;;;4945636;29;20031;-75
2021/10/30 04:17:07;;;;;;;8.35;4.30;;;10.00;99.90;;;;;;4946258;29;20040;-74
2021/10/30 04:19:33;;;;;;;8.45;4.30;;;10.00;99.90;;;;;;4936335;29;20032;-76
2021/10/30 04:21:59;;;;;;;11.05;4.05;;;9.90;99.90;;;;;;4926927;29;20087;-76
2021/10/30 04:24:24;;;;;;;10.30;4.25;;;9.90;99.90;;;;;;4926809;29;20071;-74
2021/10/30 04:26:50;;;;;;;7.10;3.58;;;9.90;99.90;;;;;;4926656;29;20365;-75
2021/10/30 04:29:16;;;;;;;10.20;4.47;;;9.90;99.90;;;;;;4926405;29;20465;-75
2021/10/30 04:31:46;;;;;;;9.43;4.25;;;9.90;99.90;;;;;;4926971;29;20052;-76
2021/10/30 04:34:30;;;;;;;9.68;4.13;;;9.80;99.90;;;;;;4926855;29;20024;-75
2021/10/30 04:36:57;;;;;;;8.20;4.40;;;9.90;99.90;;;;;;4926705;29;20563;-76
2021/10/30 04:39:23;;;;;;;13.00;4.38;;;9.80;99.90;;;;;;4941178;29;20028;-74
2021/10/30 04:41:48;;;;;;;8.85;4.00;;;9.80;99.90;;;;;;4926679;29;20028;-75
2021/10/30 04:44:14;;;;;;;7.55;3.60;;;9.80;99.90;;;;;;4941086;29;20063;-75
2021/10/30 04:46:40;;;;;;;8.85;4.00;;;9.80;99.90;;;;;;4926622;29;20096;-77
2021/10/30 04:49:07;;;;;;;6.97;3.53;;;9.80;99.90;;;;;;4925127;29;20036;-75
2021/10/30 04:51:33;;;;;;;10.00;3.90;;;9.80;99.90;;;;;;4940584;29;20039;-74
2021/10/30 04:53:59;;;;;;;8.93;4.00;;;9.80;99.90;;;;;;4926287;29;20028;-75
2021/10/30 04:56:25;;;;;;;7.78;3.90;;;9.90;99.90;;;;;;4940721;29;20032;-75
2021/10/30 04:58:50;;;;;;;10.35;4.45;;;9.90;99.90;;;;;;4926472;29;20544;-73
2021/10/30 05:01:17;;;;;;;9.00;3.90;;;9.80;99.90;;;;;;4926507;29;20039;-75
2021/10/30 05:03:43;;;;;;;6.20;3.35;;;9.80;99.90;;;;;;4934329;29;20083;-75
2021/10/30 05:06:10;;;;;;;8.20;4.18;;;9.90;99.90;;;;;;4945708;29;20054;-74
2021/10/30 05:08:36;;;;;;;7.13;3.83;;;9.90;99.90;;;;;;4943871;29;20035;-76
2021/10/30 05:11:02;;;;;;;8.93;3.50;;;9.90;99.90;;;;;;4959956;29;20047;-74
2021/10/30 05:13:28;;;;;;;10.75;3.90;;;9.90;99.90;;;;;;4945538;29;20042;-75
2021/10/30 05:15:54;;;;;;;8.52;3.70;;;9.90;99.90;;;;;;4943394;29;20055;-75
2021/10/30 05:18:20;;;;;;;10.35;4.57;;;9.90;99.90;;;;;;4944788;29;20059;-73
2021/10/30 05:20:45;;;;;;;8.10;3.97;;;9.90;99.90;;;;;;4945531;29;20020;-74
2021/10/30 05:23:17;;;;;;;15.25;5.47;;;9.90;99.90;;;;;;4945077;29;20055;-77
2021/10/30 05:25:43;;;;;;;11.20;3.40;;;9.90;99.90;;;;;;4945580;29;20024;-74
2021/10/30 05:28:09;;;;;;;6.70;3.80;;;10.00;99.90;;;;;;4945865;29;20088;-74
2021/10/30 05:30:35;;;;;;;8.93;4.28;;;9.90;99.90;;;;;;4945156;29;20032;-76
2021/10/30 05:33:00;;;;;;;10.40;4.45;;;9.90;99.90;;;;;;4944931;29;20039;-74
2021/10/30 05:35:30;;;;;;;6.10;3.63;;;9.90;99.90;;;;;;4945390;29;20028;-75
2021/10/30 05:37:55;;;;;;;11.27;4.00;;;9.90;99.90;;;;;;4959731;29;20047;-74
2021/10/30 05:40:21;;;;;;;7.13;3.45;;;10.00;99.90;;;;;;4959525;29;20059;-74
2021/10/30 05:42:47;;;;;;;9.85;4.18;;;9.90;99.90;;;;;;4943869;29;20052;-75
2021/10/30 05:45:13;;;;;;;8.35;3.85;;;9.90;99.90;;;;;;4950281;29;20119;-74
2021/10/30 05:47:43;;;;;;;8.70;3.33;;;10.00;99.90;;;;;;4934566;29;20028;-75
2021/10/30 05:50:10;;;;;;;7.53;3.55;;;10.00;99.90;;;;;;4949476;29;20099;-75
2021/10/30 05:52:35;;;;;;;8.00;3.47;;;10.00;99.90;;;;;;4950843;29;20532;-74
2021/10/30 05:55:01;;;;;;;7.25;4.18;;;10.00;99.90;;;;;;4944799;29;20040;-74
2021/10/30 05:57:27;;;;;;;4.50;2.78;;;10.00;99.90;;;;;;4944468;29;20046;-74
2021/10/30 05:59:53;;;;;;;6.53;3.30;;;10.00;99.90;;;;;;4944989;29;20468;-74
2021/10/30 06:02:19;;;;;;;8.00;3.35;;;10.00;99.90;;;;;;4961115;28;20024;-75
2021/10/30 06:04:45;;;;;;;6.03;4.30;;;10.00;99.90;;;;;;4949550;28;20055;-74
2021/10/30 06:07:11;;;;;;;7.90;4.07;;;10.00;99.90;;;;;;4939824;29;20032;-75
2021/10/30 06:09:37;;;;;;;11.82;4.32;;;10.00;99.90;;;;;;4945225;29;20038;-75
2021/10/30 06:12:04;;;;;;;11.20;4.40;;;10.00;99.90;;;;;;4956338;29;20103;-75
2021/10/30 06:14:30;;;;;;;13.30;3.70;;;9.90;99.90;;;;;;4945891;29;20032;-76
2021/10/30 06:16:55;;;;;;;9.48;4.13;;;9.90;99.90;;;;;;4947709;29;20055;-75
2021/10/30 06:19:21;;;;;;;11.35;4.20;;;9.90;99.90;;;;;;4940293;29;20023;-74
2021/10/30 06:21:47;;;;;;;14.73;4.25;;;9.90;99.90;;;;;;4941966;29;20056;-75
2021/10/30 06:24:12;;;;;;;9.75;4.45;;;10.00;99.90;;;;;;4942590;29;20120;-75
2021/10/30 06:26:38;;;;;;;21.05;4.88;;;10.00;99.90;;;;;;4940828;29;20079;-76
2021/10/30 06:29:04;;;;;;;10.57;4.18;;;10.00;99.90;;;;;;4947651;29;20110;-75
2021/10/30 06:31:30;;;;;;;14.80;4.80;;;10.00;99.90;;;;;;4943094;29;20997;-74
2021/10/30 06:33:56;;;;;;;13.73;4.97;;;9.90;99.90;;;;;;4938058;29;20042;-74
2021/10/30 06:36:21;;;;;;;8.73;3.78;;;10.00;99.90;;;;;;4940511;29;20059;-74
2021/10/30 06:38:50;;;;;;;8.00;4.30;;;10.00;99.90;;;;;;4944471;29;20027;-75
2021/10/30 06:41:16;;;;;;;11.70;4.53;;;10.00;99.90;;;;;;4948007;29;20048;-74
2021/10/30 06:43:46;;;;;;;11.43;4.72;;;10.00;99.90;;;;;;4945735;29;20035;-76
2021/10/30 06:46:12;;;;;;;12.43;5.13;;;10.00;99.90;;;;;;4943598;29;20404;-76
2021/10/30 06:48:38;;;;;;;13.98;4.78;;;10.10;99.90;;;;;;4961714;28;20091;-73
2021/10/30 06:51:05;;;;;;;19.92;5.50;;;10.00;99.90;;;;;;4932310;29;20027;-74
2021/10/30 06:53:35;;;;;;;9.23;4.68;;;10.10;99.90;;;;;;4946778;29;20480;-73
2021/10/30 06:56:00;;;;;;;9.50;4.82;;;10.10;99.90;;;;;;4942861;29;20039;-72
2021/10/30 06:58:30;;;;;;;8.30;4.78;;;10.10;99.90;;;;;;4946936;29;20036;-73
2021/10/30 07:00:57;;;;;;;12.15;4.22;;;10.10;99.90;;;;;;4946739;29;20024;-73
2021/10/30 07:03:24;;;;;;;12.82;4.18;;;10.10;99.90;;;;;;4937567;29;20067;-73
2021/10/30 07:05:50;;;;;;;7.85;3.78;;;10.20;99.90;;;;;;4947202;29;20036;-74
2021/10/30 07:08:16;;;;;;;18.20;5.32;;;10.10;99.90;;;;;;4930319;29;20070;-74
2021/10/30 07:10:42;;;;;;;8.60;4.15;;;10.20;99.90;;;;;;4942848;29;20057;-74
2021/10/30 07:13:08;;;;;;;7.15;4.00;;;10.20;99.90;;;;;;4927204;29;20441;-75
2021/10/30 07:15:37;;;;;;;12.38;4.72;;;10.30;99.90;;;;;;4943221;29;20039;-74
2021/10/30 07:18:06;;;;;;;13.07;4.68;;;10.30;99.90;;;;;;4936514;29;20123;-76
2021/10/30 07:20:32;;;;;;;6.60;3.60;;;10.40;99.90;;;;;;4933010;29;20042;-74
2021/10/30 07:22:58;;;;;;;10.70;4.70;;;10.40;99.90;;;;;;4942285;29;20083;-73
2021/10/30 07:25:24;;;;;;;6.85;3.60;;;10.40;99.90;;;;;;4946675;29;20036;-75
2021/10/30 07:27:51;;;;;;;11.75;4.88;;;10.40;99.90;;;;;;4931026;29;20045;-75
2021/10/30 07:30:16;;;;;;;7.45;3.92;;;10.40;99.90;;;;;;4937717;29;20047;-75
2021/10/30 07:32:43;;;;;;;13.00;5.18;;;10.40;99.90;;;;;;4943594;29;20027;-75
2021/10/30 07:35:10;;;;;;;10.93;4.72;;;10.40;99.90;;;;;;4939091;29;20026;-76
2021/10/30 07:37:37;;;;;;;13.73;4.95;;;10.40;99.90;;;;;;4946415;29;20047;-75
2021/10/30 07:40:06;;;;;;;10.82;4.03;;;10.40;99.90;;;;;;4946740;29;20116;-76
2021/10/30 07:42:33;;;;;;;9.30;4.70;;;10.50;99.90;;;;;;4960663;29;20198;-75
2021/10/30 07:45:00;;;;;;;8.57;4.65;;;10.40;99.90;;;;;;4946204;29;20023;-75
2021/10/30 07:47:26;;;;;;;8.63;4.20;;;10.40;99.90;;;;;;4946914;29;20023;-74
2021/10/30 07:49:51;;;;;;;14.00;5.18;;;10.40;99.90;;;;;;4939837;29;20087;-74
2021/10/30 07:52:17;;;;;;;14.00;4.70;;;10.50;99.90;;;;;;4936583;29;20433;-74
2021/10/30 07:54:43;;;;;;;11.00;4.65;;;10.50;99.90;;;;;;4945864;29;20124;-75
2021/10/30 07:57:10;;;;;;;11.57;5.30;;;10.50;99.90;;;;;;4957101;29;20043;-72
2021/10/30 07:59:41;;;;;;;14.93;4.82;;;10.50;99.90;;;;;;4946114;29;20028;-74
2021/10/30 08:02:08;;;;;;;12.82;3.83;;;10.50;99.90;;;;;;4946082;29;20035;-75
2021/10/30 08:04:36;;;;;;;12.43;4.07;;;10.50;99.90;;;;;;4946370;29;20051;-75
2021/10/30 08:07:05;;;;;;;20.40;4.68;;;10.50;99.90;;;;;;4946405;29;20036;-75
2021/10/30 08:09:37;;;;;;;9.55;4.28;;;10.50;99.90;;;;;;4945472;29;20031;-74
2021/10/30 08:12:03;;;;;;;12.70;4.25;;;10.50;99.90;;;;;;4944949;29;20043;-75
2021/10/30 08:14:30;;;;;;;10.05;3.83;;;10.60;99.90;;;;;;4943473;29;20143;-73
2021/10/30 08:16:55;;;;;;;17.42;4.65;;;10.60;99.90;;;;;;4938231;29;20403;-74
2021/10/30 08:19:21;;;;;;;12.85;4.63;;;10.60;99.90;;;;;;4945964;29;20052;-74
2021/10/30 08:21:47;;;;;;;10.50;4.35;;;10.60;99.90;;;;;;4945155;29;20051;-74
2021/10/30 08:24:12;;;;;;;10.27;3.78;;;10.70;99.90;;;;;;4943009;29;20031;-75
2021/10/30 08:26:39;;;;;;;8.18;3.78;;;10.70;99.90;;;;;;4945566;29;20032;-74
2021/10/30 08:29:06;;;;;;;9.95;3.88;;;10.70;99.90;;;;;;4942744;29;20023;-75
2021/10/30 08:31:33;;;;;;;10.02;4.32;;;10.70;99.90;;;;;;4945986;29;20043;-73
2021/10/30 08:33:59;;;;;;;17.20;4.95;;;10.70;99.90;;;;;;4945063;29;20300;-74
2021/10/30 08:36:28;;;;;;;8.68;4.60;;;10.70;99.90;;;;;;4943729;29;20044;-75
2021/10/30 08:38:55;;;;;;;10.38;4.85;;;10.70;99.90;;;;;;4939353;29;20063;-74
2021/10/30 08:41:25;;;;;;;8.95;4.53;;;10.70;99.90;;;;;;4958012;29;20024;-75
2021/10/30 08:43:52;;;;;;;9.02;3.85;;;10.70;99.90;;;;;;4944722;29;20024;-75
2021/10/30 08:46:18;;;;;;;15.55;5.28;;;10.70;99.90;;;;;;4958819;29;20455;-74
2021/10/30 08:48:47;;;;;;;8.43;4.28;;;10.70;99.90;;;;;;4944512;29;20027;-74
2021/10/30 08:51:13;;;;;;;11.75;4.55;;;10.60;99.90;;;;;;4943091;29;20042;-76
2021/10/30 08:53:39;;;;;;;10.40;5.35;;;10.60;99.90;;;;;;4944880;29;20043;-77
2021/10/30 08:56:07;;;;;;;17.13;4.25;;;10.60;99.90;;;;;;4945709;29;20083;-73
2021/10/30 08:58:35;;;;;;;11.23;4.90;;;10.60;99.90;;;;;;4944092;29;20393;-77
2021/10/30 09:01:07;;;;;;;19.80;5.15;;;10.60;99.90;;;;;;4940861;29;20843;-75
2021/10/30 09:03:35;;;;;;;13.30;4.97;;;10.60;99.90;;;;;;4958659;28;20019;-75
2021/10/30 09:06:01;;;;;;;11.27;4.70;;;10.60;99.90;;;;;;4944891;29;20130;-74
2021/10/30 09:08:27;;;;;;;10.18;5.05;;;10.60;99.90;;;;;;4940292;29;20110;-73
2021/10/30 09:10:57;;;;;;;10.27;5.22;;;10.60;99.90;;;;;;4940347;29;20028;-75
2021/10/30 09:13:27;;;;;;;12.15;4.47;;;10.60;99.90;;;;;;4943712;29;20028;-73
2021/10/30 09:15:54;;;;;;;9.98;4.85;;;10.60;99.90;;;;;;4937010;29;20102;-74
2021/10/30 09:18:31;;;;;;;11.52;4.93;;;10.60;99.90;;;;;;4944417;29;20130;-75
2021/10/30 09:21:13;;;;;;;11.05;5.28;;;10.60;99.90;;;;;;4944384;29;20032;-74
2021/10/30 09:23:40;;;;;;;12.38;5.05;;;10.60;99.90;;;;;;4926267;29;20053;-75
2021/10/30 09:26:09;;;;;;;12.40;5.85;;;10.60;99.90;;;;;;4926257;29;20036;-74
2021/10/30 09:28:47;;;;;;;12.20;5.57;;;10.60;99.90;;;;;;4926421;29;20028;-75
2021/10/30 09:31:13;;;;;;;10.07;4.85;;;10.50;99.90;;;;;;4925982;29;20024;-75
2021/10/30 09:34:00;;;;;;;14.05;5.38;;;10.60;99.90;;;;;;4936834;29;20027;-73
2021/10/30 09:36:31;;;;;;;9.70;4.30;;;10.60;99.90;;;;;;4962126;28;20059;-74
2021/10/30 09:39:27;;;;;;;11.37;4.93;;;10.60;99.90;;;;;;4947118;29;20043;-74
2021/10/30 09:41:53;;;;;;;8.38;4.35;;;10.60;99.90;;;;;;4928216;29;20042;-74
2021/10/30 09:44:23;;;;;;;16.42;5.35;;;10.60;99.90;;;;;;4929643;29;20028;-74
2021/10/30 09:46:55;;;;;;;9.80;5.03;;;10.70;99.90;;;;;;4933330;29;20091;-74
2021/10/30 09:49:24;;;;;;;10.70;5.60;;;10.70;99.90;;;;;;4946623;29;20044;-74
2021/10/30 09:52:08;;;;;;;8.82;4.85;;;10.70;99.90;;;;;;4948698;29;20035;-74
2021/10/30 09:54:45;;;;;;;9.98;4.32;;;10.70;99.90;;;;;;4933947;29;20028;-76
2021/10/30 09:57:25;;;;;;;8.88;4.13;;;10.70;99.90;;;;;;4947044;29;20051;-74
2021/10/30 09:59:53;;;;;;;10.95;5.72;;;10.80;99.90;;;;;;4960809;28;20373;-74
2021/10/30 10:02:21;;;;;;;10.50;5.00;;;10.70;99.90;;;;;;4962456;28;20095;-74
2021/10/30 10:04:48;;;;;;;10.70;4.70;;;10.80;99.90;;;;;;4946242;29;20054;-75
2021/10/30 10:07:15;;;;;;;11.18;4.88;;;10.70;99.90;;;;;;4947636;29;20046;-74
2021/10/30 10:09:42;;;;;;;8.15;3.85;;;10.70;99.90;;;;;;4961572;29;20036;-73
2021/10/30 10:12:13;;;;;;;10.23;5.60;;;10.70;99.90;;;;;;4937031;29;20032;-74
2021/10/30 10:14:41;;;;;;;15.68;4.78;;;10.70;99.90;;;;;;4930599;29;20039;-74
2021/10/30 10:17:07;;;;;;;13.25;5.47;;;10.70;99.90;;;;;;4939611;29;20051;-74
2021/10/30 10:19:33;;;;;;;14.45;6.07;;;10.70;99.90;;;;;;4937571;29;20095;-74
2021/10/30 10:22:00;;;;;;;11.50;5.18;;;10.70;99.90;;;;;;4947536;29;20067;-75
2021/10/30 10:24:32;;;;;;;10.07;4.93;;;10.70;99.90;;;;;;4948294;29;20649;-74
2021/10/30 10:27:00;;;;;;;7.75;4.93;;;10.70;99.90;;;;;;4947955;29;20500;-74
2021/10/30 10:29:54;;;;;;;10.65;5.38;;;10.70;99.90;;;;;;4947964;29;20047;-74
2021/10/30 10:32:26;;;;;;;9.23;4.33;;;10.70;99.90;;;;;;4963249;29;20043;-74
2021/10/30 10:35:02;;;;;;;9.38;4.75;;;10.70;99.90;;;;;;4932554;29;20166;-74
2021/10/30 10:37:28;;;;;;;10.18;5.50;;;10.70;99.90;;;;;;4943489;29;20051;-75
2021/10/30 10:39:58;;;;;;;11.95;6.10;;;10.70;99.90;;;;;;4944595;29;20107;-76
2021/10/30 10:42:36;;;;;;;15.63;5.10;;;10.70;99.90;;;;;;4935274;29;20561;-74
2021/10/30 10:45:02;;;;;;;8.65;4.82;;;10.70;99.90;;;;;;4957038;29;20060;-76
2021/10/30 10:47:41;;;;;;;14.30;5.50;;;10.70;99.90;;;;;;4946726;29;20024;-75
2021/10/30 10:50:36;;;;;;;11.80;4.53;;;10.70;99.90;;;;;;4962469;29;20024;-75
2021/10/30 10:53:08;;;;;;;;;;;10.80;99.90;;;;;;4948385;29;20036;-75
2021/10/30 10:55:57;;;;;;;9.27;4.45;;;10.80;99.90;;;;;;4947644;29;19930;-75
2021/10/30 10:58:23;;;;;;;17.58;5.72;;;10.90;99.90;;;;;;4942891;29;20056;-75
2021/10/30 11:01:14;;;;;;;23.23;5.35;;;10.90;99.90;;;;;;4947674;29;20031;-75
2021/10/30 11:03:47;;;;;;;12.55;5.88;;;11.00;99.90;;;;;;4961739;29;20106;-75
2021/10/30 11:06:13;;;;;;;11.25;4.75;;;11.00;99.90;;;;;;4946259;29;20032;-76
2021/10/30 11:08:39;;;;;;;11.18;5.20;;;11.00;99.90;;;;;;4945900;29;20095;-76
2021/10/30 11:11:21;;;;;;;12.10;4.95;;;11.10;99.90;;;;;;4939079;29;20032;-77
2021/10/30 11:14:10;;;;;;;9.70;4.32;;;11.10;99.90;;;;;;4928448;29;20084;-76
2021/10/30 11:16:53;;;;;;;12.23;5.88;;;11.20;99.90;;;;;;4928268;29;20036;-76
2021/10/30 11:19:36;;;;;;;9.20;4.47;;;11.20;99.90;;;;;;4934580;29;20035;-75
2021/10/30 11:22:16;;;;;;;13.68;5.80;;;11.20;99.90;;;;;;4956168;29;20428;-75
2021/10/30 11:25:00;;;;;;;12.60;5.28;;;11.30;99.90;;;;;;4936990;29;20024;-75
2021/10/30 11:27:26;;;;;;;9.70;4.68;;;11.40;99.90;;;;;;4936278;29;20090;-74
2021/10/30 11:29:53;;;;;;;11.48;5.38;;;11.40;99.90;;;;;;4940829;29;20032;-76
2021/10/30 11:32:20;;;;;;;12.85;5.30;;;11.50;99.90;;;;;;4928197;29;20108;-75
2021/10/30 11:34:59;;;;;;;14.27;6.10;;;11.50;99.90;;;;;;4942468;29;20033;-75
2021/10/30 11:37:25;;;;;;;11.55;4.95;;;11.60;99.90;;;;;;4958894;29;20118;-75
2021/10/30 11:39:51;;;;;;;12.32;5.57;;;11.60;99.90;;;;;;4939602;29;20105;-74
2021/10/30 11:42:22;;;;;;;12.38;5.00;;;11.60;99.90;;;;;;4946176;29;20036;-73
2021/10/30 11:44:50;;;;;;;11.65;4.50;;;11.70;99.90;;;;;;4945859;29;20135;-74
2021/10/30 11:47:21;;;;;;;12.50;5.50;;;11.80;99.90;;;;;;4946516;29;20047;-75
2021/10/30 11:49:48;;;;;;;11.52;5.20;;;11.90;99.90;;;;;;4945080;29;20038;-74
2021/10/30 11:52:18;;;;;;;14.93;5.93;;;11.90;99.90;;;;;;4946454;29;20024;-75
2021/10/30 11:54:45;;;;;;;13.25;4.65;;;12.00;99.90;;;;;;4944853;29;20098;-73
2021/10/30 11:57:11;;;;;;;9.07;4.50;;;12.10;99.90;;;;;;4961261;29;20047;-74
2021/10/30 11:59:55;;;;;;;7.63;4.85;;;12.10;99.90;;;;;;4946306;29;20097;-74
2021/10/30 12:02:21;;;;;;;12.30;5.30;;;12.10;99.90;;;;;;4946823;29;20032;-73
2021/10/30 12:04:49;;;;;;;36.92;18.15;;;12.10;99.90;;;;;;4946501;29;20032;-76
2021/10/30 12:07:15;;;;;;;13.90;5.50;;;12.20;99.90;;;;;;4946545;29;20417;-74
2021/10/30 12:09:43;;;;;;;11.52;4.60;;;12.20;99.90;;;;;;4945511;29;20031;-75
2021/10/30 12:12:23;;;;;;;12.63;4.65;;;12.20;99.90;;;;;;4944786;29;20027;-75
2021/10/30 12:14:54;;;;;;;10.25;4.63;;;12.20;99.90;;;;;;4946245;29;20031;-76
2021/10/30 12:17:21;;;;;;;10.30;4.93;;;12.30;99.90;;;;;;4945892;29;20039;-74
2021/10/30 12:19:53;;;;;;;11.38;5.07;;;12.40;99.90;;;;;;4945852;29;20079;-74
2021/10/30 12:22:30;;;;;;;11.45;5.10;;;12.30;99.90;;;;;;4945437;29;20079;-74
2021/10/30 12:25:13;;;;;;;12.75;5.60;;;12.30;99.90;;;;;;4945560;29;20536;-74
2021/10/30 12:27:47;;;;;;;7.15;4.45;;;12.40;99.90;;;;;;4945996;29;20039;-75
2021/10/30 12:30:14;;;;;;;30.40;5.38;;;12.40;99.90;;;;;;4944910;29;20038;-73
2021/10/30 12:32:42;;;;;;;13.27;5.50;;;12.50;99.90;;;;;;4945542;29;20024;-75
2021/10/30 12:35:08;;;;;;;9.63;4.38;;;12.50;99.90;;;;;;4944752;29;20035;-75
2021/10/30 12:37:37;;;;;;;8.45;4.55;;;12.50;99.90;;;;;;4945352;29;20122;-74
2021/10/30 12:40:09;;;;;;;10.70;5.40;;;12.60;99.90;;;;;;4946001;29;20055;-75
2021/10/30 12:42:36;;;;;;;10.77;4.47;;;12.60;99.90;;;;;;4945668;29;20036;-75
2021/10/30 12:45:05;;;;;;;10.40;4.90;;;12.60;99.90;;;;;;4944658;29;20067;-74
2021/10/30 12:47:32;;;;;;;9.70;5.00;;;12.60;99.90;;;;;;4936975;29;20038;-74